Time;durP1;ratioP1;P1;durP2;ratioP2;P2;SDS_P1;SDS_P2;PMS_P1;PMS_P2;Temp;Humidity;BMP_temperature;BMP_pressure;BME280_temperature;BME280_humidity;BME280_pressure;Samples;Min_cycle;Max_cycle;Signal;HPM_P1;HPM_P2
2023/05/28 00:01:11;;;;;;;2.70;0.60;;;;;;;15.44;100.00;99951.66;105458;1254;72627;-50
2023/05/28 00:03:41;;;;;;;1.30;0.60;;;;;;;15.38;100.00;99951.30;105489;1259;62223;-50
2023/05/28 00:06:09;;;;;;;2.10;0.40;;;;;;;15.34;100.00;99950.51;106140;1259;60374;-48
2023/05/28 00:08:37;;;;;;;4.30;0.60;;;;;;;15.30;100.00;99952.73;105306;1260;72919;-49
2023/05/28 00:11:05;;;;;;;2.40;0.60;;;;;;;15.26;100.00;99954.23;105630;1256;66538;-47
2023/05/28 00:13:33;;;;;;;6.40;0.60;;;;;;;15.22;100.00;99956.70;105331;1254;72520;-50
2023/05/28 00:16:01;;;;;;;5.30;0.60;;;;;;;15.17;100.00;99959.17;105445;1254;60427;-47
2023/05/28 00:18:28;;;;;;;3.10;0.70;;;;;;;15.13;100.00;99966.13;105404;1259;60448;-51
2023/05/28 00:20:56;;;;;;;5.20;1.10;;;;;;;15.08;100.00;99964.23;105351;1262;72876;-48
2023/05/28 00:23:23;;;;;;;6.60;1.10;;;;;;;15.06;100.00;99966.59;105453;1254;67738;-50
2023/05/28 00:25:51;;;;;;;3.70;0.60;;;;;;;15.05;100.00;99967.91;105357;1257;71606;-48
2023/05/28 00:28:19;;;;;;;4.70;0.60;;;;;;;15.00;100.00;99969.30;106342;1257;60543;-47
2023/05/28 00:30:47;;;;;;;2.80;0.60;;;;;;;14.95;100.00;99969.11;105375;1254;60403;-50
2023/05/28 00:33:15;;;;;;;1.50;0.50;;;;;;;14.91;100.00;99965.03;105693;1254;72958;-46
2023/05/28 00:35:42;;;;;;;6.60;0.70;;;;;;;14.86;100.00;99967.65;105383;1260;68076;-50
2023/05/28 00:38:09;;;;;;;5.00;0.50;;;;;;;14.82;100.00;99969.86;105386;1254;72104;-49
2023/05/28 00:40:43;;;;;;;5.40;0.70;;;;;;;14.80;100.00;99972.19;105332;1257;60335;-51
2023/05/28 00:43:10;;;;;;;4.00;0.80;;;;;;;14.78;100.00;99974.52;105601;1254;60623;-50
2023/05/28 00:45:38;;;;;;;6.40;0.80;;;;;;;14.74;100.00;99976.92;105447;1253;74187;-51
2023/05/28 00:48:06;;;;;;;2.80;0.70;;;;;;;14.72;100.00;99973.06;105406;1258;67179;-49
2023/05/28 00:50:34;;;;;;;4.50;0.60;;;;;;;14.71;100.00;99975.99;105437;1257;72884;-50
2023/05/28 00:53:03;;;;;;;3.30;0.50;;;;;;;14.68;100.00;99976.73;106018;1255;61278;-49
2023/05/28 00:55:30;;;;;;;2.70;0.60;;;;;;;14.64;100.00;99977.52;105383;1259;60448;-50
2023/05/28 00:58:05;;;;;;;8.80;0.70;;;;;;;14.62;100.00;99979.66;106465;1254;73649;-51
2023/05/28 01:00:33;;;;;;;5.20;0.60;;;;;;;14.59;100.00;99981.25;105406;1257;65832;-49
2023/05/28 01:03:00;;;;;;;7.60;0.50;;;;;;;14.56;100.00;99986.15;107276;1258;71393;-48
2023/05/28 01:05:31;;;;;;;0.90;0.50;;;;;;;14.51;100.00;99979.79;105521;1254;60781;-49
2023/05/28 01:08:01;;;;;;;1.70;0.50;;;;;;;14.47;100.00;99985.63;105994;1254;60485;-50
2023/05/28 01:10:28;;;;;;;5.50;0.80;;;;;;;14.44;100.00;99988.00;105207;1259;73943;-50
2023/05/28 01:12:56;;;;;;;8.20;0.70;;;;;;;14.43;100.00;99986.58;105217;1259;67109;-49
2023/05/28 01:15:25;;;;;;;1.30;0.50;;;;;;;14.43;100.00;99985.33;105384;1258;71950;-51
2023/05/28 01:17:57;;;;;;;2.10;0.50;;;;;;;14.41;100.00;99986.88;106012;1258;61550;-49
2023/05/28 01:20:27;;;;;;;1.20;0.70;;;;;;;14.37;100.00;99983.82;105479;1254;60892;-51
2023/05/28 01:23:00;;;;;;;2.70;0.50;;;;;;;14.36;100.00;99990.23;105112;1253;73283;-51
2023/05/28 01:25:30;;;;;;;2.80;0.50;;;;;;;14.31;100.00;99996.80;106063;1254;67649;-48
2023/05/28 01:28:01;;;;;;;4.60;0.40;;;;;;;14.27;100.00;100000.70;105505;1259;71495;-48
2023/05/28 01:30:29;;;;;;;3.20;0.50;;;;;;;14.23;100.00;99999.98;105502;1260;60584;-47
2023/05/28 01:32:56;;;;;;;2.30;0.50;;;;;;;14.19;100.00;100002.77;105542;1253;60401;-50
2023/05/28 01:35:24;;;;;;;0.80;0.60;;;;;;;14.16;100.00;100003.34;105653;1254;73693;-50
2023/05/28 01:37:52;;;;;;;3.20;0.50;;;;;;;14.10;100.00;100008.35;105588;1254;67233;-49
2023/05/28 01:40:20;;;;;;;3.60;0.50;;;;;;;14.07;100.00;100007.65;107520;1255;71232;-46
2023/05/28 01:42:47;;;;;;;2.60;0.50;;;;;;;14.05;100.00;100011.05;109073;1254;59154;-49
2023/05/28 01:45:15;;;;;;;5.20;0.50;;;;;;;14.00;100.00;100012.76;108912;1253;58463;-49
2023/05/28 01:47:43;;;;;;;3.80;0.60;;;;;;;13.96;100.00;100012.80;109074;1253;72686;-50
2023/05/28 01:50:12;;;;;;;1.40;0.40;;;;;;;13.94;100.00;100016.50;107163;1254;69084;-47
2023/05/28 01:52:39;;;;;;;5.50;0.50;;;;;;;13.94;100.00;100017.79;105284;1261;71976;-47
2023/05/28 01:55:08;;;;;;;2.70;0.50;;;;;;;13.93;100.00;100020.00;105260;1259;62855;-50
2023/05/28 01:57:36;;;;;;;5.30;0.40;;;;;;;13.90;100.00;100020.52;109076;1254;147775;-51
2023/05/28 02:01:46;;;;;;;2.60;0.40;;;;;;;13.88;100.00;100019.41;102352;1296;601973;-49
2023/05/28 02:04:14;;;;;;;0.90;0.50;;;;;;;13.85;100.00;100027.92;104361;1267;60357;-49
2023/05/28 02:06:44;;;;;;;2.00;0.40;;;;;;;13.83;100.00;100025.66;108184;1268;58613;-50
2023/05/28 02:09:12;;;;;;;3.80;0.70;;;;;;;13.80;100.00;100022.38;106989;1270;70807;-49
2023/05/28 02:11:42;;;;;;;7.90;0.50;;;;;;;13.79;100.00;100022.84;104231;1271;65784;-51
2023/05/28 02:14:13;;;;;;;3.50;0.50;;;;;;;13.75;100.00;100027.20;104149;1269;72934;-50
2023/05/28 02:16:42;;;;;;;1.70;1.00;;;;;;;13.70;100.00;100025.85;108188;1265;59776;-49
2023/05/28 02:19:11;;;;;;;1.70;0.50;;;;;;;13.66;100.00;100024.11;104568;1266;59338;-49
2023/05/28 02:21:38;;;;;;;4.30;0.50;;;;;;;13.63;100.00;100024.25;104425;1267;70819;-50
2023/05/28 02:24:06;;;;;;;1.60;0.40;;;;;;;13.59;100.00;100027.02;104315;1270;67699;-50
2023/05/28 02:26:35;;;;;;;1.70;0.60;;;;;;;13.54;100.00;100026.20;104273;1271;72561;-50
2023/05/28 02:29:02;;;;;;;0.80;0.40;;;;;;;13.53;100.00;100023.77;104347;1272;60410;-50
2023/05/28 02:31:29;;;;;;;1.30;0.50;;;;;;;13.53;100.00;100026.08;104268;1267;60335;-50
2023/05/28 02:33:57;;;;;;;7.50;0.50;;;;;;;13.52;100.00;100022.91;104255;1265;72935;-51
2023/05/28 02:36:24;;;;;;;0.60;0.30;;;;;;;13.51;100.00;100022.42;104288;1266;67151;-50
2023/05/28 02:38:52;;;;;;;3.80;0.40;;;;;;;13.52;100.00;100027.05;104735;1271;73719;-50
2023/05/28 02:41:20;;;;;;;1.20;0.40;;;;;;;13.51;100.00;100026.55;104352;1269;60374;-50
2023/05/28 02:43:48;;;;;;;2.60;0.60;;;;;;;13.49;100.00;100026.48;104852;1267;59862;-50
2023/05/28 02:46:16;;;;;;;1.50;0.50;;;;;;;13.48;100.00;100022.92;104289;1266;73034;-50
2023/05/28 02:48:45;;;;;;;0.90;0.40;;;;;;;13.47;100.00;100021.92;104888;1270;67776;-50
2023/05/28 02:51:13;;;;;;;3.40;0.50;;;;;;;13.46;100.00;100023.04;104505;1264;72409;-50
2023/05/28 02:53:53;;;;;;;3.00;0.50;;;;;;;13.47;100.00;100022.81;104687;1271;59658;-47
2023/05/28 02:56:22;;;;;;;5.60;0.40;;;;;;;13.50;100.00;100023.76;104557;1265;60369;-48
2023/05/28 02:58:50;;;;;;;2.20;0.40;;;;;;;13.52;100.00;100022.04;104913;1266;72510;-48
2023/05/28 03:01:17;;;;;;;0.60;0.40;;;;;;;13.51;100.00;100023.52;104760;1267;69682;-49
2023/05/28 03:03:45;;;;;;;5.30;0.90;;;;;;;13.50;100.00;100029.33;105110;1267;72004;-49
2023/05/28 03:06:13;;;;;;;2.50;0.40;;;;;;;13.51;100.00;100032.71;104730;1267;60838;-49
2023/05/28 03:08:50;;;;;;;2.50;0.50;;;;;;;13.50;100.00;100031.86;105273;1267;59871;-49
2023/05/28 03:11:18;;;;;;;1.20;0.30;;;;;;;13.50;100.00;100035.45;104654;1265;73964;-50
2023/05/28 03:13:45;;;;;;;1.40;0.40;;;;;;;13.52;100.00;100039.32;104649;1270;67571;-50
2023/05/28 03:16:13;;;;;;;1.70;0.30;;;;;;;13.55;100.00;100044.36;104581;1270;72515;-50
2023/05/28 03:18:41;;;;;;;0.60;0.40;;;;;;;13.58;100.00;100048.70;105112;1270;59930;-47
2023/05/28 03:21:09;;;;;;;1.20;0.40;;;;;;;13.60;100.00;100052.71;104964;1267;60126;-50
2023/05/28 03:23:36;;;;;;;1.10;0.40;;;;;;;13.63;100.00;100054.17;105095;1268;72992;-51
2023/05/28 03:26:10;;;;;;;1.70;0.40;;;;;;;13.65;100.00;100062.38;105064;1264;66749;-51
2023/05/28 03:28:38;;;;;;;0.60;0.30;;;;;;;13.67;100.00;100060.52;104880;1264;71726;-49
2023/05/28 03:31:28;;;;;;;1.70;0.50;;;;;;;13.70;100.00;100059.06;104954;1261;60426;-51
2023/05/28 03:33:57;;;;;;;1.00;0.30;;;;;;;13.74;100.00;100064.42;105097;1262;59894;-49
2023/05/28 03:36:27;;;;;;;2.40;0.40;;;;;;;13.76;100.00;100064.32;104772;1264;72923;-50
2023/05/28 03:38:54;;;;;;;2.90;0.30;;;;;;;13.77;100.00;100065.34;104724;1262;67204;-47
2023/05/28 03:41:23;;;;;;;1.50;0.40;;;;;;;13.78;100.00;100067.98;105252;1267;71986;-47
2023/05/28 03:43:51;;;;;;;1.70;0.50;;;;;;;13.80;100.00;100070.72;104898;1268;59621;-49
2023/05/28 03:46:19;;;;;;;1.10;0.30;;;;;;;13.84;100.00;100067.11;104978;1261;62272;-46
2023/05/28 03:48:46;;;;;;;1.10;0.40;;;;;;;13.86;100.00;100067.66;104954;1261;73858;-49
2023/05/28 03:51:14;;;;;;;2.40;0.40;;;;;;;13.88;100.00;100063.79;104748;1267;67661;-48
2023/05/28 03:53:41;;;;;;;3.40;0.30;;;;;;;13.89;100.00;100066.41;104721;1268;73844;-48
2023/05/28 03:56:08;;;;;;;1.30;0.40;;;;;;;13.93;100.00;100065.33;104763;1268;59744;-48
2023/05/28 03:58:36;;;;;;;1.60;0.30;;;;;;;13.95;100.00;100065.21;104790;1263;60453;-50
2023/05/28 04:01:03;;;;;;;3.40;0.30;;;;;;;13.95;100.00;100067.17;104889;1264;72285;-50
2023/05/28 04:03:31;;;;;;;3.50;0.40;;;;;;;13.94;100.00;100068.30;104712;1264;65598;-48
2023/05/28 04:05:59;;;;;;;2.80;0.30;;;;;;;13.94;100.00;100067.42;105016;1268;74221;-49
2023/05/28 04:08:26;;;;;;;0.60;0.40;;;;;;;13.94;100.00;100065.23;104927;1268;61084;-49
2023/05/28 04:10:54;;;;;;;5.10;0.40;;;;;;;13.97;100.00;100064.15;104860;1268;59656;-49
2023/05/28 04:13:23;;;;;;;1.20;0.40;;;;;;;14.00;100.00;100064.86;104865;1265;73321;-48
2023/05/28 04:15:51;;;;;;;1.50;0.30;;;;;;;14.03;100.00;100070.14;104778;1268;67796;-49
2023/05/28 04:18:18;;;;;;;6.20;0.40;;;;;;;14.06;100.00;100071.42;104768;1266;71333;-49
2023/05/28 04:20:46;;;;;;;2.00;0.30;;;;;;;14.08;100.00;100073.11;104585;1266;60037;-49
2023/05/28 04:23:13;;;;;;;1.50;0.40;;;;;;;14.08;100.00;100073.63;104850;1264;59641;-48
2023/05/28 04:25:42;;;;;;;5.20;0.40;;;;;;;14.10;100.00;100072.30;108472;1263;74346;-51
2023/05/28 04:28:11;;;;;;;2.10;0.30;;;;;;;14.12;100.00;100075.77;108553;1264;67147;-50
2023/05/28 04:30:38;;;;;;;1.70;0.40;;;;;;;14.16;100.00;100075.88;108379;1263;72736;-50
2023/05/28 04:33:06;;;;;;;3.40;0.40;;;;;;;14.20;100.00;100076.77;108378;1262;58631;-51
2023/05/28 04:35:34;;;;;;;0.50;0.30;;;;;;;14.24;100.00;100077.02;105292;1262;59775;-49
2023/05/28 04:38:01;;;;;;;2.00;0.40;;;;;;;14.27;100.00;100078.65;104819;1267;72219;-48
2023/05/28 04:40:29;;;;;;;1.20;0.50;;;;;;;14.31;100.00;100080.42;108395;1262;66225;-51
2023/05/28 04:42:57;;;;;;;2.80;0.30;;;;;;;14.33;100.00;100083.88;108390;1265;72313;-51
2023/05/28 04:45:26;;;;;;;1.50;0.40;;;;;;;14.34;100.00;100086.20;108348;1262;58313;-49
2023/05/28 04:47:54;;;;;;;1.20;0.30;;;;;;;14.38;100.00;100085.61;108362;1262;59848;-51
2023/05/28 04:50:22;;;;;;;1.50;0.40;;;;;;;14.44;100.00;100091.44;108324;1264;72427;-50
2023/05/28 04:52:50;;;;;;;1.30;0.40;;;;;;;14.50;100.00;100095.94;108405;1262;67849;-52
2023/05/28 04:55:18;;;;;;;1.50;0.40;;;;;;;14.58;100.00;100098.35;108584;1263;71497;-52
2023/05/28 04:57:46;;;;;;;0.40;0.30;;;;;;;14.62;100.00;100099.37;108491;1265;58745;-51
2023/05/28 05:00:14;;;;;;;1.10;0.40;;;;;;;14.66;100.00;100094.80;108392;1262;59854;-51
2023/05/28 05:02:41;;;;;;;1.60;0.30;;;;;;;14.70;100.00;100091.48;108496;1263;72483;-52
2023/05/28 05:05:09;;;;;;;2.80;0.40;;;;;;;14.76;100.00;100090.79;108289;1262;65689;-50
2023/05/28 05:07:37;;;;;;;0.50;0.30;;;;;;;14.85;100.00;100089.17;104887;1262;72648;-50
2023/05/28 05:10:09;;;;;;;0.60;0.40;;;;;;;14.92;100.00;100088.88;104410;1265;60041;-50
2023/05/28 05:12:36;;;;;;;1.20;0.40;;;;;;;14.97;100.00;100091.29;104482;1262;60227;-47
2023/05/28 05:15:08;;;;;;;2.20;0.40;;;;;;;15.00;100.00;100094.55;104600;1264;73319;-50
2023/05/28 05:17:35;;;;;;;1.20;0.40;;;;;;;15.02;100.00;100093.89;104797;1264;65862;-50
2023/05/28 05:20:04;;;;;;;2.80;0.50;;;;;;;15.05;100.00;100092.20;104877;1263;74911;-48
2023/05/28 05:22:33;;;;;;;0.90;0.40;;;;;;;15.11;100.00;100095.45;105130;1264;59543;-50
2023/05/28 05:25:01;;;;;;;10.80;0.50;;;;;;;15.16;100.00;100095.17;104668;1268;59562;-50
2023/05/28 05:27:29;;;;;;;1.50;0.50;;;;;;;15.19;100.00;100100.08;104778;1265;74946;-51
2023/05/28 05:29:57;;;;;;;1.00;0.40;;;;;;;15.20;100.00;100102.54;104621;1262;67129;-50
2023/05/28 05:32:24;;;;;;;1.80;0.40;;;;;;;15.19;100.00;100104.03;104753;1267;72561;-51
2023/05/28 05:34:52;;;;;;;1.60;0.40;;;;;;;15.20;100.00;100103.47;105932;1267;59609;-49
2023/05/28 05:37:42;;;;;;;0.50;0.20;;;;;;;15.23;100.00;100100.89;104798;1267;59487;-47
2023/05/28 05:40:19;;;;;;;2.90;0.30;;;;;;;15.30;100.00;100106.44;104856;1263;73161;-51
2023/05/28 05:43:05;;;;;;;3.90;0.40;;;;;;;15.39;100.00;100110.89;104836;1268;67049;-50
2023/05/28 05:45:32;;;;;;;0.70;0.30;;;;;;;15.45;100.00;100111.09;104533;1264;72592;-51
2023/05/28 05:48:00;;;;;;;1.60;0.40;;;;;;;15.47;100.00;100111.85;105374;1263;59779;-49
2023/05/28 05:50:28;;;;;;;3.90;0.40;;;;;;;15.49;100.00;100112.98;105381;1260;62159;-49
2023/05/28 05:52:55;;;;;;;4.00;0.40;;;;;;;15.49;100.00;100109.73;105316;1263;72720;-49
2023/05/28 05:55:23;;;;;;;2.00;0.40;;;;;;;15.50;100.00;100107.50;105051;1259;66797;-48
2023/05/28 05:57:50;;;;;;;0.30;0.30;;;;;;;15.51;100.00;100108.86;105169;1262;70978;-49
2023/05/28 06:00:18;;;;;;;0.60;0.30;;;;;;;15.57;100.00;100114.73;105024;1264;59727;-51
2023/05/28 06:02:48;;;;;;;1.70;0.30;;;;;;;15.65;100.00;100113.66;105115;1259;62011;-51
2023/05/28 06:05:55;;;;;;;0.50;0.40;;;;;;;15.77;100.00;100114.33;104818;1263;72539;-50
2023/05/28 06:08:30;;;;;;;1.00;0.30;;;;;;;15.84;100.00;100114.55;104864;1270;66962;-49
2023/05/28 06:11:01;;;;;;;2.50;0.30;;;;;;;15.89;100.00;100116.99;104619;1258;72949;-51
2023/05/28 06:13:28;;;;;;;1.40;0.30;;;;;;;15.91;100.00;100117.23;105703;1258;61476;-50
2023/05/28 06:15:56;;;;;;;2.30;0.30;;;;;;;15.94;100.00;100115.21;104994;1259;60414;-48
2023/05/28 06:18:24;;;;;;;0.40;0.30;;;;;;;15.99;100.00;100114.03;105016;1264;73686;-50
2023/05/28 06:20:52;;;;;;;2.20;0.40;;;;;;;16.03;100.00;100113.20;105074;1259;66794;-50
2023/05/28 06:23:19;;;;;;;3.00;0.40;;;;;;;16.09;100.00;100112.98;105276;1259;72608;-50
2023/05/28 06:25:47;;;;;;;1.10;0.30;;;;;;;16.13;100.00;100115.58;104867;1259;60537;-50
2023/05/28 06:28:15;;;;;;;3.00;0.30;;;;;;;16.17;100.00;100119.66;104547;1261;60373;-50
2023/05/28 06:30:43;;;;;;;0.80;0.40;;;;;;;16.23;100.00;100119.60;105825;1262;73114;-51
2023/05/28 06:33:10;;;;;;;3.80;0.30;;;;;;;16.30;100.00;100118.30;105093;1259;65000;-51
2023/05/28 06:35:38;;;;;;;5.40;0.50;;;;;;;16.30;100.00;100118.11;105312;1258;72835;-50
2023/05/28 06:38:06;;;;;;;3.00;0.30;;;;;;;16.30;100.00;100118.64;105256;1259;60501;-49
2023/05/28 06:40:33;;;;;;;1.90;0.50;;;;;;;16.33;100.00;100115.20;104999;1259;60702;-50
2023/05/28 06:43:02;;;;;;;0.60;0.30;;;;;;;16.37;100.00;100112.72;104952;1259;73133;-51
2023/05/28 06:45:35;;;;;;;3.40;0.30;;;;;;;16.44;100.00;100112.29;105176;1263;66679;-51
2023/05/28 06:48:03;;;;;;;1.50;0.40;;;;;;;16.46;100.00;100107.25;105448;1264;71154;-50
2023/05/28 06:50:30;;;;;;;4.20;0.40;;;;;;;16.47;100.00;100105.23;105520;1264;60546;-51
2023/05/28 06:52:58;;;;;;;0.90;0.40;;;;;;;16.51;100.00;100104.88;105150;1259;60397;-51
2023/05/28 06:55:25;;;;;;;2.10;0.40;;;;;;;16.59;100.00;100107.98;104969;1259;72587;-49
2023/05/28 06:58:11;;;;;;;3.10;0.50;;;;;;;16.70;100.00;100106.91;104696;1257;66234;-49
2023/05/28 07:00:58;;;;;;;4.90;0.30;;;;;;;16.74;100.00;100097.22;104704;1263;72451;-51
2023/05/28 07:03:30;;;;;;;0.80;0.40;;;;;;;16.77;100.00;100094.86;105017;1259;61294;-50
2023/05/28 07:06:11;;;;;;;1.10;0.40;;;;;;;16.82;100.00;100090.52;105026;1263;60358;-50
2023/05/28 07:08:44;;;;;;;7.00;0.70;;;;;;;16.89;100.00;100097.64;104651;1259;74378;-52
2023/05/28 07:11:13;;;;;;;0.80;0.30;;;;;;;16.99;100.00;100096.58;104913;1263;69491;-53
2023/05/28 07:13:44;;;;;;;3.70;0.40;;;;;;;17.08;100.00;100101.59;104726;1264;73292;-52
2023/05/28 07:16:12;;;;;;;2.20;0.30;;;;;;;17.11;100.00;100099.00;105871;1260;62288;-51
2023/05/28 07:18:40;;;;;;;4.00;0.30;;;;;;;17.14;100.00;100098.46;105106;1256;60592;-50
2023/05/28 07:21:08;;;;;;;2.60;0.40;;;;;;;17.18;100.00;100096.51;105037;1256;73920;-51
2023/05/28 07:23:40;;;;;;;0.40;0.30;;;;;;;17.23;100.00;100095.77;105605;1261;68367;-48
2023/05/28 07:26:07;;;;;;;2.90;0.40;;;;;;;17.28;100.00;100086.54;104969;1256;72665;-50
2023/05/28 07:28:35;;;;;;;0.60;0.30;;;;;;;17.35;100.00;100090.77;105035;1258;62231;-51
2023/05/28 07:31:03;;;;;;;2.20;0.50;;;;;;;17.40;100.00;100090.77;105248;1256;60454;-51
2023/05/28 07:33:31;;;;;;;2.60;0.40;;;;;;;17.46;100.00;100088.33;108918;1254;76071;-50
2023/05/28 07:35:58;;;;;;;4.50;0.40;;;;;;;17.53;100.00;100088.77;108859;1256;67209;-51
2023/05/28 07:38:25;;;;;;;1.80;0.40;;;;;;;17.61;100.00;100085.49;108990;1254;72628;-51
2023/05/28 07:40:55;;;;;;;5.20;0.40;;;;;;;17.68;100.00;100084.46;108872;1254;58667;-51
2023/05/28 07:43:49;;;;;;;1.80;0.50;;;;;;;17.70;100.00;100079.59;108967;1254;59240;-52
2023/05/28 07:46:21;;;;;;;1.80;0.40;;;;;;;17.71;100.00;100082.02;106763;1257;74658;-50
2023/05/28 07:48:53;;;;;;;1.40;0.40;;;;;;;17.77;100.00;100075.23;108933;1255;66785;-53
2023/05/28 07:51:29;;;;;;;1.80;0.40;;;;;;;17.87;100.00;100077.63;108902;1256;70792;-51
2023/05/28 07:54:03;;;;;;;3.30;0.50;;;;;;;17.94;100.00;100073.30;108784;1256;59444;-51
2023/05/28 07:56:31;;;;;;;1.10;0.50;;;;;;;18.00;100.00;100076.45;108937;1254;59827;-52
2023/05/28 07:58:58;;;;;;;1.80;0.50;;;;;;;18.07;100.00;100075.73;108874;1254;73449;-51
2023/05/28 08:01:27;;;;;;;0.70;0.40;;;;;;;18.14;100.00;100073.61;108973;1254;70413;-52
2023/05/28 08:03:55;;;;;;;8.30;0.40;;;;;;;18.17;100.00;100072.85;108958;1256;70758;-51
2023/05/28 08:06:28;;;;;;;1.00;0.40;;;;;;;18.21;100.00;100069.12;108816;1255;61944;-51
2023/05/28 08:08:56;;;;;;;5.40;0.50;;;;;;;18.21;100.00;100068.87;108976;1254;59266;-52
2023/05/28 08:11:25;;;;;;;3.90;0.40;;;;;;;18.20;100.00;100069.38;108966;1254;72717;-52
2023/05/28 08:13:53;;;;;;;2.10;0.70;;;;;;;18.16;100.00;100066.56;108890;1254;65796;-52
2023/05/28 08:16:20;;;;;;;0.70;0.40;;;;;;;18.12;100.00;100070.28;108980;1256;71807;-52
2023/05/28 08:19:06;;;;;;;1.00;0.40;;;;;;;18.10;100.00;100061.71;106938;1255;60671;-51
2023/05/28 08:21:35;;;;;;;1.10;0.40;;;;;;;18.10;100.00;100067.88;105336;1254;61539;-52
2023/05/28 08:24:06;;;;;;;1.50;0.40;;;;;;;18.13;100.00;100066.35;105890;1256;73364;-50
2023/05/28 08:26:33;;;;;;;1.00;0.30;;;;;;;18.16;100.00;100064.35;105602;1255;67255;-51
2023/05/28 08:29:01;;;;;;;1.10;0.40;;;;;;;18.20;100.00;100074.23;105343;1256;71419;-50
2023/05/28 08:31:31;;;;;;;3.50;0.50;;;;;;;18.23;100.00;100070.39;105189;1258;61280;-51
2023/05/28 08:34:10;;;;;;;4.00;0.40;;;;;;;18.23;100.00;100065.64;104839;1254;60391;-51
2023/05/28 08:36:37;;;;;;;2.00;0.40;;;;;;;18.24;100.00;100060.71;104950;1255;74910;-51
2023/05/28 08:39:08;;;;;;;2.10;0.40;;;;;;;18.26;100.00;100061.83;105055;1256;66395;-50
2023/05/28 08:41:37;;;;;;;0.90;0.50;;;;;;;18.30;100.00;100057.64;104885;1254;74082;-51
2023/05/28 08:44:05;;;;;;;0.80;0.50;;;;;;;18.33;100.00;100052.50;108638;1256;59409;-52
2023/05/28 08:46:32;;;;;;;5.20;0.50;;;;;;;18.36;100.00;100053.21;105089;1254;60419;-48
2023/05/28 08:49:47;;;;;;;2.30;0.50;;;;;;;18.41;100.00;100054.85;104552;1256;73625;-54
2023/05/28 08:52:17;;;;;;;1.30;0.50;;;;;;;18.41;100.00;100052.81;105740;1260;67096;-52
2023/05/28 08:54:46;;;;;;;0.60;0.40;;;;;;;18.39;100.00;100053.14;105000;1256;73101;-52
2023/05/28 08:57:14;;;;;;;0.80;0.40;;;;;;;18.40;100.00;100058.15;105232;1260;60533;-52
2023/05/28 08:59:46;;;;;;;0.80;0.40;;;;;;;18.40;100.00;100052.20;105090;1262;60452;-53
2023/05/28 09:02:13;;;;;;;4.40;0.70;;;;;;;18.39;100.00;100057.52;104792;1254;72425;-51
2023/05/28 09:04:45;;;;;;;1.00;0.30;;;;;;;18.42;100.00;100064.96;105380;1256;68467;-52
2023/05/28 09:07:14;;;;;;;3.20;0.40;;;;;;;18.38;100.00;100063.40;105584;1254;72563;-53
2023/05/28 09:09:50;;;;;;;1.00;0.40;;;;;;;18.34;100.00;100065.04;104753;1255;60657;-49
2023/05/28 09:12:21;;;;;;;1.90;0.40;;;;;;;18.37;100.00;100064.81;105018;1258;60406;-54
2023/05/28 09:14:53;;;;;;;0.90;0.40;;;;;;;18.46;100.00;100074.07;105041;1256;73942;-52
2023/05/28 09:17:37;;;;;;;1.00;0.40;;;;;;;18.54;100.00;100068.05;105317;1258;66265;-52
2023/05/28 09:20:12;;;;;;;3.00;0.40;;;;;;;18.57;100.00;100053.42;104824;1255;73240;-49
2023/05/28 09:22:41;;;;;;;0.60;0.40;;;;;;;18.65;100.00;100052.67;106037;1255;60959;-51
2023/05/28 09:25:24;;;;;;;1.70;0.30;;;;;;;18.71;100.00;100051.61;104999;1256;60406;-50
2023/05/28 09:27:58;;;;;;;2.10;0.40;;;;;;;18.78;100.00;100050.89;105000;1258;76419;-51
2023/05/28 09:30:26;;;;;;;7.20;0.40;;;;;;;18.86;100.00;100059.92;105033;1256;68996;-50
2023/05/28 09:33:04;;;;;;;8.10;0.40;;;;;;;18.92;100.00;100054.39;104729;1258;75272;-53
2023/05/28 09:35:32;;;;;;;2.90;0.40;;;;;;;18.99;100.00;100051.98;105768;1258;60686;-51
2023/05/28 09:38:04;;;;;;;2.40;0.30;;;;;;;19.06;100.00;100053.60;105377;1256;60560;-51
2023/05/28 09:40:32;;;;;;;0.90;0.30;;;;;;;19.10;100.00;100057.50;106426;1256;72763;-49
2023/05/28 09:43:00;;;;;;;0.60;0.30;;;;;;;19.15;100.00;100052.72;105159;1259;65014;-51
2023/05/28 09:45:27;;;;;;;2.90;0.30;;;;;;;19.19;100.00;100053.91;105024;1262;74372;-51
2023/05/28 09:47:55;;;;;;;0.70;0.50;;;;;;;19.21;100.00;100051.69;104963;1258;60424;-53
2023/05/28 09:50:22;;;;;;;1.90;0.30;;;;;;;19.25;100.00;100048.07;105378;1260;60429;-51
2023/05/28 09:52:51;;;;;;;1.40;0.40;;;;;;;19.32;100.00;100050.68;105101;1259;74090;-51
2023/05/28 09:55:19;;;;;;;0.70;0.30;;;;;;;19.38;100.00;100046.15;105075;1258;64952;-50
2023/05/28 09:58:07;;;;;;;0.50;0.30;;;;;;;19.46;100.00;100048.06;106879;1260;71961;-49
2023/05/28 10:00:38;;;;;;;2.80;0.30;;;;;;;19.54;100.00;100049.25;105393;1260;60485;-52
2023/05/28 10:03:12;;;;;;;1.30;0.40;;;;;;;19.58;100.00;100050.21;105589;1255;60623;-50
2023/05/28 10:05:43;;;;;;;2.10;0.40;;;;;;;19.62;100.00;100042.48;105356;1254;74177;-53
2023/05/28 10:08:11;;;;;;;1.60;0.30;;;;;;;19.63;100.00;100042.11;105496;1258;67197;-52
2023/05/28 10:10:39;;;;;;;0.80;0.40;;;;;;;19.62;100.00;100046.40;105369;1261;72943;-51
2023/05/28 10:13:09;;;;;;;0.70;0.30;;;;;;;19.58;100.00;100050.36;105319;1258;62692;-52
2023/05/28 10:15:37;;;;;;;0.40;0.30;;;;;;;19.54;100.00;100045.48;105292;1253;60525;-51
2023/05/28 10:18:06;;;;;;;1.20;0.30;;;;;;;19.51;100.00;100047.31;105299;1255;74714;-51
2023/05/28 10:20:34;;;;;;;1.40;0.40;;;;;;;19.52;100.00;100047.80;105215;1259;67365;-53
2023/05/28 10:23:01;;;;;;;1.50;0.30;;;;;;;19.53;100.00;100044.95;105256;1254;72784;-50
2023/05/28 10:25:29;;;;;;;0.40;0.30;;;;;;;19.52;100.00;100043.81;105337;1254;60438;-51
2023/05/28 10:27:58;;;;;;;4.00;0.40;;;;;;;19.49;100.00;100044.00;105402;1256;60519;-53
2023/05/28 10:30:32;;;;;;;1.50;0.40;;;;;;;19.48;100.00;100041.23;105470;1256;74083;-52
2023/05/28 10:33:03;;;;;;;2.30;0.30;;;;;;;19.46;100.00;100041.86;105449;1258;69356;-51
2023/05/28 10:35:35;;;;;;;0.90;0.20;;;;;;;19.48;100.00;100039.36;105538;1261;72747;-50
2023/05/28 10:38:04;;;;;;;1.80;0.30;;;;;;;19.51;100.00;100033.33;105559;1256;60454;-51
2023/05/28 10:40:33;;;;;;;1.70;0.30;;;;;;;19.57;100.00;100038.27;105096;1260;60422;-50
2023/05/28 10:43:01;;;;;;;1.00;0.40;;;;;;;19.64;100.00;100029.91;105221;1258;74190;-51
2023/05/28 10:45:36;;;;;;;2.20;0.30;;;;;;;19.71;100.00;100028.82;105265;1254;67281;-51
2023/05/28 10:48:04;;;;;;;1.20;0.30;;;;;;;19.75;100.00;100028.10;109118;1255;73209;-53
2023/05/28 10:50:32;;;;;;;2.90;0.30;;;;;;;19.72;100.00;100030.71;109050;1258;58272;-53
2023/05/28 10:53:09;;;;;;;0.50;0.40;;;;;;;19.68;100.00;100031.94;109042;1254;60672;-50
2023/05/28 10:55:50;;;;;;;0.30;0.30;;;;;;;19.68;100.00;100033.95;109023;1254;73248;-52
2023/05/28 10:58:35;;;;;;;0.70;0.40;;;;;;;19.73;100.00;100035.72;105963;1254;67195;-53
2023/05/28 11:01:23;;;;;;;;;;;;;;;19.78;100.00;100034.39;109083;1254;72336;-50
2023/05/28 11:03:57;;;;;;;3.80;0.40;;;;;;;19.87;100.00;100026.20;109047;1260;60844;-51
2023/05/28 11:06:25;;;;;;;3.80;0.50;;;;;;;19.96;100.00;100035.77;105716;1256;60492;-54
2023/05/28 11:08:53;;;;;;;1.80;0.40;;;;;;;20.02;100.00;100043.29;105841;1260;73161;-50
2023/05/28 11:11:20;;;;;;;0.80;0.40;;;;;;;20.01;100.00;100042.09;105315;1256;65131;-50
2023/05/28 11:13:48;;;;;;;0.40;0.30;;;;;;;20.00;100.00;100039.80;105418;1257;72741;-52
2023/05/28 11:16:17;;;;;;;0.70;0.30;;;;;;;20.00;100.00;100045.79;105302;1256;60800;-52
2023/05/28 11:19:04;;;;;;;2.60;0.30;;;;;;;19.99;100.00;100040.11;109152;1254;60466;-52
2023/05/28 11:21:34;;;;;;;1.00;0.30;;;;;;;19.93;100.00;100034.61;109054;1254;74134;-50
2023/05/28 11:24:02;;;;;;;2.40;0.30;;;;;;;19.91;100.00;100036.77;108754;1254;70816;-51